createdAt,value
2023-04-22T00:01:01.468Z,100.00
2023-04-22T00:03:29.151Z,100.00
2023-04-22T00:05:56.171Z,100.00
2023-04-22T00:08:23.025Z,100.00
2023-04-22T00:10:49.743Z,100.00
2023-04-22T00:13:16.459Z,100.00
2023-04-22T00:15:43.140Z,100.00
2023-04-22T00:18:14.236Z,100.00
2023-04-22T00:20:45.096Z,100.00
2023-04-22T00:23:12.787Z,100.00
2023-04-22T00:25:40.557Z,100.00
2023-04-22T00:28:07.389Z,100.00
2023-04-22T00:30:35.464Z,100.00
2023-04-22T00:33:02.219Z,100.00
2023-04-22T00:35:28.928Z,100.00
2023-04-22T00:37:55.959Z,100.00
2023-04-22T00:40:22.857Z,100.00
2023-04-22T00:42:51.006Z,100.00
2023-04-22T00:45:19.185Z,100.00
2023-04-22T00:47:46.933Z,100.00
2023-04-22T00:50:14.499Z,100.00
2023-04-22T00:52:41.533Z,100.00
2023-04-22T00:55:08.792Z,100.00
2023-04-22T00:57:36.230Z,100.00
2023-04-22T01:00:05.444Z,100.00
2023-04-22T01:02:32.583Z,100.00
2023-04-22T01:04:59.669Z,100.00
2023-04-22T01:07:26.277Z,100.00
2023-04-22T01:09:53.081Z,100.00
2023-04-22T01:12:19.834Z,100.00
2023-04-22T01:14:46.972Z,100.00
2023-04-22T01:17:14.552Z,100.00
2023-04-22T01:19:42.882Z,100.00
2023-04-22T01:22:13.197Z,100.00
2023-04-22T01:24:40.503Z,100.00
2023-04-22T01:27:07.845Z,100.00
2023-04-22T01:29:37.127Z,100.00
2023-04-22T01:32:05.072Z,100.00
2023-04-22T01:34:32.527Z,100.00
2023-04-22T01:36:59.283Z,100.00
2023-04-22T01:39:26.100Z,100.00
2023-04-22T01:41:53.710Z,100.00
2023-04-22T01:44:20.393Z,100.00
2023-04-22T01:46:47.127Z,100.00
2023-04-22T01:49:13.851Z,100.00
2023-04-22T01:51:40.557Z,100.00
2023-04-22T01:54:07.367Z,100.00
2023-04-22T01:56:34.219Z,100.00
2023-04-22T01:59:00.895Z,100.00
2023-04-22T02:01:27.568Z,100.00
2023-04-22T02:03:54.454Z,100.00
2023-04-22T02:06:21.414Z,100.00
2023-04-22T02:08:48.069Z,100.00
2023-04-22T02:11:14.699Z,100.00
2023-04-22T02:13:41.574Z,100.00
2023-04-22T02:16:08.599Z,100.00
2023-04-22T02:18:35.372Z,100.00
2023-04-22T02:21:02.601Z,100.00
2023-04-22T02:23:29.279Z,100.00
2023-04-22T02:25:56.390Z,100.00
2023-04-22T02:28:23.317Z,100.00
2023-04-22T02:30:50.101Z,100.00
2023-04-22T02:33:16.904Z,100.00
2023-04-22T02:35:43.544Z,100.00
2023-04-22T02:38:10.915Z,100.00
2023-04-22T02:40:37.638Z,100.00
2023-04-22T02:43:04.682Z,100.00
2023-04-22T02:45:31.415Z,100.00
2023-04-22T02:47:58.328Z,100.00
2023-04-22T02:50:25.126Z,100.00
2023-04-22T02:52:52.078Z,100.00
2023-04-22T02:55:18.888Z,100.00
2023-04-22T02:57:46.095Z,100.00
2023-04-22T03:00:13.672Z,100.00
2023-04-22T03:02:40.525Z,100.00
2023-04-22T03:05:07.729Z,100.00
2023-04-22T03:07:34.417Z,100.00
2023-04-22T03:10:01.037Z,100.00
2023-04-22T03:12:27.793Z,100.00
2023-04-22T03:14:54.473Z,100.00
2023-04-22T03:17:21.260Z,100.00
2023-04-22T03:19:47.953Z,100.00
2023-04-22T03:22:14.654Z,100.00
2023-04-22T03:24:41.405Z,100.00
2023-04-22T03:27:08.302Z,100.00
2023-04-22T03:29:34.996Z,100.00
2023-04-22T03:32:01.854Z,100.00
2023-04-22T03:34:28.687Z,100.00
2023-04-22T03:36:55.470Z,100.00
2023-04-22T03:39:22.138Z,100.00
2023-04-22T03:41:48.826Z,100.00
2023-04-22T03:44:15.829Z,100.00
2023-04-22T03:46:42.414Z,100.00
2023-04-22T03:49:09.742Z,100.00
2023-04-22T03:51:36.477Z,100.00
2023-04-22T03:54:03.194Z,100.00
2023-04-22T03:56:29.909Z,100.00
2023-04-22T03:58:56.581Z,100.00
2023-04-22T04:01:23.738Z,100.00
2023-04-22T04:03:50.668Z,100.00
2023-04-22T04:06:20.538Z,100.00
2023-04-22T04:08:47.266Z,100.00
2023-04-22T04:11:13.958Z,100.00
2023-04-22T04:13:40.816Z,100.00
2023-04-22T04:16:07.623Z,100.00
2023-04-22T04:18:34.444Z,100.00
2023-04-22T04:21:01.131Z,100.00
2023-04-22T04:23:27.877Z,100.00
2023-04-22T04:25:55.687Z,100.00
2023-04-22T04:28:22.431Z,100.00
2023-04-22T04:30:49.209Z,100.00
2023-04-22T04:33:16.831Z,100.00
2023-04-22T04:35:44.939Z,100.00
2023-04-22T04:38:12.911Z,100.00
2023-04-22T04:40:39.545Z,100.00
2023-04-22T04:43:08.769Z,100.00
2023-04-22T04:45:39.218Z,100.00
2023-04-22T04:48:09.260Z,100.00
2023-04-22T04:50:35.998Z,100.00
2023-04-22T04:53:02.969Z,100.00
2023-04-22T04:55:29.686Z,100.00
2023-04-22T04:57:56.397Z,100.00
2023-04-22T05:00:23.159Z,100.00
2023-04-22T05:02:50.017Z,100.00
2023-04-22T05:05:16.875Z,100.00
2023-04-22T05:07:43.601Z,100.00
2023-04-22T05:10:10.882Z,100.00
2023-04-22T05:12:37.749Z,100.00
2023-04-22T05:15:04.995Z,100.00
2023-04-22T05:17:32.050Z,100.00
2023-04-22T05:19:58.779Z,100.00
2023-04-22T05:22:25.484Z,100.00
2023-04-22T05:24:52.167Z,100.00
2023-04-22T05:27:18.817Z,100.00
2023-04-22T05:29:45.526Z,100.00
2023-04-22T05:32:12.277Z,100.00
2023-04-22T05:34:39.017Z,100.00
2023-04-22T05:37:05.964Z,100.00
2023-04-22T05:39:32.884Z,100.00
2023-04-22T05:41:59.558Z,100.00
2023-04-22T05:44:26.462Z,100.00
2023-04-22T05:46:53.169Z,100.00
2023-04-22T05:49:19.802Z,100.00
2023-04-22T05:51:46.604Z,100.00
2023-04-22T05:54:13.403Z,100.00
2023-04-22T05:56:40.067Z,100.00
2023-04-22T05:59:06.720Z,100.00
2023-04-22T06:01:33.428Z,100.00
2023-04-22T06:04:00.554Z,100.00
2023-04-22T06:06:27.657Z,100.00
2023-04-22T06:08:54.505Z,100.00
2023-04-22T06:11:21.133Z,100.00
2023-04-22T06:13:47.858Z,100.00
2023-04-22T06:16:14.657Z,100.00
2023-04-22T06:18:43.544Z,100.00
2023-04-22T06:21:10.963Z,97.52
2023-04-22T06:23:37.888Z,92.42
2023-04-22T06:26:05.074Z,87.22
2023-04-22T06:28:31.898Z,87.73
2023-04-22T06:30:58.872Z,85.49
2023-04-22T06:33:25.826Z,83.45
2023-04-22T06:35:52.646Z,81.14
2023-04-22T06:38:22.084Z,77.44
2023-04-22T06:40:48.959Z,80.50
2023-04-22T06:43:15.951Z,80.49
2023-04-22T06:45:43.103Z,79.80
2023-04-22T06:48:10.033Z,79.94
2023-04-22T06:50:36.701Z,80.07
2023-04-22T06:53:03.414Z,86.61
2023-04-22T06:55:30.293Z,87.65
2023-04-22T06:57:57.022Z,83.13
2023-04-22T07:00:25.695Z,83.88
2023-04-22T07:02:53.066Z,78.68
2023-04-22T07:05:21.168Z,77.65
2023-04-22T07:07:47.955Z,83.19
2023-04-22T07:10:15.062Z,86.36
2023-04-22T07:12:41.957Z,87.28
2023-04-22T07:15:08.908Z,87.94
2023-04-22T07:17:35.819Z,90.87
2023-04-22T07:20:02.775Z,86.58
2023-04-22T07:22:29.710Z,82.11
2023-04-22T07:24:57.005Z,83.18
2023-04-22T07:27:24.001Z,85.46
2023-04-22T07:29:50.939Z,79.42
2023-04-22T07:32:17.997Z,73.17
2023-04-22T07:34:44.890Z,84.42
2023-04-22T07:37:11.682Z,81.19
2023-04-22T07:39:38.729Z,76.91
2023-04-22T07:42:07.465Z,78.81
2023-04-22T07:44:34.339Z,77.19
2023-04-22T07:47:01.196Z,71.32
2023-04-22T07:49:28.187Z,69.44
2023-04-22T07:52:27.878Z,66.43
2023-04-22T07:54:54.694Z,64.04
2023-04-22T07:57:22.666Z,58.66
2023-04-22T07:59:50.038Z,60.56
2023-04-22T08:02:16.901Z,53.80
2023-04-22T08:04:43.816Z,50.97
2023-04-22T08:07:30.458Z,50.41
2023-04-22T08:09:58.176Z,47.67
2023-04-22T08:12:25.047Z,49.12
2023-04-22T08:14:51.995Z,47.56
2023-04-22T08:17:22.395Z,46.50
2023-04-22T08:19:49.964Z,44.74
2023-04-22T08:22:18.577Z,46.04
2023-04-22T08:24:45.756Z,44.30
2023-04-22T08:27:12.558Z,43.61
2023-04-22T08:29:39.749Z,42.27
2023-04-22T08:32:06.759Z,41.66
2023-04-22T08:34:33.780Z,43.13
2023-04-22T08:37:00.722Z,41.62
2023-04-22T08:39:27.550Z,41.27
2023-04-22T08:41:56.422Z,41.24
2023-04-22T08:44:23.683Z,40.48
2023-04-22T08:46:51.598Z,40.73
2023-04-22T08:49:19.577Z,41.53
2023-04-22T08:51:46.620Z,41.90
2023-04-22T08:54:13.407Z,42.19
2023-04-22T08:56:42.778Z,41.51
2023-04-22T08:59:13.540Z,40.84
2023-04-22T09:01:41.847Z,41.59
2023-04-22T09:04:11.770Z,41.37
2023-04-22T09:06:39.482Z,40.36
2023-04-22T09:09:06.304Z,41.85
2023-04-22T09:11:33.866Z,41.97
2023-04-22T09:14:00.723Z,42.36
2023-04-22T09:16:30.996Z,42.13
2023-04-22T09:18:58.319Z,42.77
2023-04-22T09:21:28.744Z,41.23
2023-04-22T09:23:56.865Z,41.03
2023-04-22T09:26:27.423Z,39.31
2023-04-22T09:28:59.408Z,38.45
2023-04-22T09:31:27.972Z,39.00
2023-04-22T09:33:57.663Z,39.56
2023-04-22T09:36:29.093Z,40.15
2023-04-22T09:38:57.873Z,38.73
2023-04-22T09:41:28.862Z,38.18
2023-04-22T09:43:57.949Z,39.60
2023-04-22T09:46:26.638Z,39.33
2023-04-22T09:48:55.267Z,39.59
2023-04-22T09:51:22.855Z,38.64
2023-04-22T09:54:08.826Z,39.19
2023-04-22T09:56:49.877Z,39.00
2023-04-22T09:59:30.653Z,38.78
2023-04-22T10:02:00.833Z,39.01
2023-04-22T10:04:28.654Z,39.07
2023-04-22T10:06:56.139Z,36.13
2023-04-22T10:09:24.503Z,35.97
2023-04-22T10:11:54.133Z,35.82
2023-04-22T10:14:24.303Z,35.95
2023-04-22T10:16:54.923Z,35.20
2023-04-22T10:19:23.509Z,34.07
2023-04-22T10:21:54.849Z,34.08
2023-04-22T10:24:21.793Z,33.97
2023-04-22T10:26:56.941Z,33.51
2023-04-22T10:29:25.411Z,32.88
2023-04-22T10:32:18.350Z,32.87
2023-04-22T10:34:47.761Z,31.36
2023-04-22T10:37:18.333Z,32.05
2023-04-22T10:40:17.374Z,32.25
2023-04-22T10:42:51.583Z,32.61
2023-04-22T10:45:18.732Z,31.24
2023-04-22T10:47:45.616Z,31.46
2023-04-22T10:50:24.418Z,31.71
2023-04-22T10:52:54.662Z,32.54
2023-04-22T10:55:22.545Z,32.31
2023-04-22T10:57:50.846Z,32.28
2023-04-22T11:00:25.695Z,31.25
2023-04-22T11:03:08.973Z,31.36
2023-04-22T11:05:36.205Z,32.88
2023-04-22T11:08:06.811Z,35.09
2023-04-22T11:10:44.563Z,34.20
2023-04-22T11:13:17.191Z,33.57
2023-04-22T11:15:46.257Z,33.71
2023-04-22T11:18:24.825Z,33.32
2023-04-22T11:20:52.575Z,33.93
2023-04-22T11:23:29.269Z,33.95
2023-04-22T11:26:06.159Z,33.44
2023-04-22T11:28:33.236Z,32.57
2023-04-22T11:31:10.101Z,32.38
2023-04-22T11:33:42.854Z,32.75
2023-04-22T11:36:13.445Z,32.43
2023-04-22T11:38:40.285Z,33.19
2023-04-22T11:41:07.370Z,36.17
2023-04-22T11:43:34.385Z,35.93
2023-04-22T11:46:01.377Z,35.04
2023-04-22T11:48:28.215Z,36.03
2023-04-22T11:51:10.042Z,36.27
2023-04-22T11:53:38.899Z,35.75
2023-04-22T11:56:05.873Z,36.31
2023-04-22T11:58:32.763Z,36.39
2023-04-22T12:00:59.863Z,35.64
2023-04-22T12:03:30.476Z,36.35
2023-04-22T12:06:02.206Z,35.20
2023-04-22T12:08:34.484Z,35.14
2023-04-22T12:11:04.253Z,35.41
2023-04-22T12:13:41.683Z,32.90
2023-04-22T12:16:17.880Z,33.03
2023-04-22T12:18:54.776Z,32.71
2023-04-22T12:21:23.826Z,32.89
2023-04-22T12:23:55.656Z,32.75
2023-04-22T12:26:26.638Z,32.54
2023-04-22T12:28:54.926Z,32.04
2023-04-22T12:31:22.265Z,31.46
2023-04-22T12:33:49.636Z,32.20
2023-04-22T12:36:17.827Z,32.40
2023-04-22T12:38:44.774Z,32.87
2023-04-22T12:41:11.675Z,33.15
2023-04-22T12:43:39.560Z,33.24
2023-04-22T12:46:07.812Z,33.15
2023-04-22T12:48:37.260Z,33.42
2023-04-22T12:51:05.082Z,33.15
2023-04-22T12:53:32.048Z,33.13
2023-04-22T12:55:59.003Z,33.11
2023-04-22T12:58:26.852Z,33.49
2023-04-22T13:00:53.839Z,33.84
2023-04-22T13:03:21.065Z,33.35
2023-04-22T13:05:48.357Z,32.99
2023-04-22T13:08:15.341Z,32.75
2023-04-22T13:10:42.348Z,32.68
2023-04-22T13:15:39.133Z,32.57
2023-04-22T13:18:06.462Z,31.73
2023-04-22T13:20:33.662Z,32.95
2023-04-22T13:23:02.378Z,32.16
2023-04-22T13:25:29.336Z,32.19
2023-04-22T13:27:56.426Z,32.34
2023-04-22T13:30:23.269Z,31.91
2023-04-22T13:32:50.112Z,32.14
2023-04-22T13:35:18.655Z,32.72
2023-04-22T13:37:46.427Z,32.78
2023-04-22T13:40:13.506Z,31.40
2023-04-22T13:42:40.719Z,32.00
2023-04-22T13:45:08.260Z,32.74
2023-04-22T13:47:35.128Z,32.46
2023-04-22T13:50:02.167Z,32.36
2023-04-22T13:52:29.553Z,32.10
2023-04-22T13:54:56.357Z,31.79
2023-04-22T13:57:23.450Z,32.05
2023-04-22T13:59:51.674Z,31.58
2023-04-22T14:02:18.592Z,32.52
2023-04-22T14:04:45.810Z,32.53
2023-04-22T14:07:12.977Z,32.64
2023-04-22T14:09:39.830Z,32.75
2023-04-22T14:12:07.893Z,32.88
2023-04-22T14:14:34.903Z,33.23
2023-04-22T14:17:01.745Z,33.69
2023-04-22T14:19:30.523Z,34.06
2023-04-22T14:21:58.024Z,34.28
2023-04-22T14:24:25.364Z,33.51
2023-04-22T14:26:52.973Z,33.52
2023-04-22T14:29:20.166Z,32.98
2023-04-22T14:31:47.263Z,33.27
2023-04-22T14:34:14.161Z,33.71
2023-04-22T14:36:40.953Z,33.89
2023-04-22T14:39:07.768Z,34.09
2023-04-22T14:41:34.802Z,34.82
2023-04-22T14:44:01.780Z,34.82
2023-04-22T14:46:30.120Z,34.78
2023-04-22T14:48:57.012Z,35.09
2023-04-22T14:51:23.859Z,34.65
2023-04-22T14:53:50.531Z,34.97
2023-04-22T14:56:17.361Z,35.32
2023-04-22T14:58:44.034Z,35.02
2023-04-22T15:01:10.787Z,35.19
2023-04-22T15:03:37.679Z,35.38
2023-04-22T15:06:04.663Z,35.27
2023-04-22T15:08:31.818Z,35.00
2023-04-22T15:10:59.994Z,35.09
2023-04-22T15:13:26.996Z,34.46
2023-04-22T15:15:54.000Z,34.25
2023-04-22T15:18:20.784Z,34.70
2023-04-22T15:20:47.835Z,34.16
2023-04-22T15:23:14.533Z,33.98
2023-04-22T15:25:41.480Z,33.14
2023-04-22T15:28:08.345Z,32.82
2023-04-22T15:30:35.169Z,32.38
2023-04-22T15:33:01.998Z,32.48
2023-04-22T15:35:28.706Z,32.30
2023-04-22T15:37:57.645Z,32.69
2023-04-22T15:40:24.831Z,32.88
2023-04-22T15:42:51.672Z,32.97
2023-04-22T15:45:18.629Z,33.21
2023-04-22T15:47:45.392Z,33.22
2023-04-22T15:50:12.357Z,33.01
2023-04-22T15:52:39.311Z,32.40
2023-04-22T15:55:07.786Z,32.69
2023-04-22T15:57:35.536Z,33.34
2023-04-22T16:00:11.669Z,33.01
2023-04-22T16:02:40.336Z,33.57
2023-04-22T16:05:07.663Z,33.32
2023-04-22T16:07:34.853Z,33.33
2023-04-22T16:10:01.707Z,33.85
2023-04-22T16:12:28.686Z,33.91
2023-04-22T16:14:55.489Z,33.81
2023-04-22T16:17:22.204Z,34.24
2023-04-22T16:19:49.205Z,34.67
2023-04-22T16:22:16.074Z,35.35
2023-04-22T16:24:44.336Z,36.21
2023-04-22T16:27:17.088Z,36.74
2023-04-22T16:29:44.213Z,37.21
2023-04-22T16:32:11.691Z,37.35
2023-04-22T16:34:38.736Z,37.95
2023-04-22T16:37:06.196Z,38.63
2023-04-22T16:39:33.191Z,38.30
2023-04-22T16:42:00.191Z,38.78
2023-04-22T16:44:26.839Z,38.95
2023-04-22T16:46:53.530Z,39.03
2023-04-22T16:49:20.343Z,39.67
2023-04-22T16:51:47.127Z,40.06
2023-04-22T16:54:13.798Z,40.08
2023-04-22T16:56:40.633Z,40.45
2023-04-22T16:59:07.557Z,40.58
2023-04-22T17:01:34.521Z,40.47
2023-04-22T17:04:02.049Z,40.81
2023-04-22T17:06:29.002Z,41.35
2023-04-22T17:08:55.943Z,41.15
2023-04-22T17:11:24.186Z,41.73
2023-04-22T17:13:51.635Z,41.82
2023-04-22T17:16:18.821Z,42.30
2023-04-22T17:18:47.170Z,42.78
2023-04-22T17:21:14.156Z,42.88
2023-04-22T17:23:41.014Z,43.15
2023-04-22T17:26:08.068Z,43.43
2023-04-22T17:28:35.026Z,43.77
2023-04-22T17:31:02.468Z,44.53
2023-04-22T17:33:30.324Z,44.83
2023-04-22T17:35:57.088Z,45.40
2023-04-22T17:38:24.160Z,45.60
2023-04-22T17:40:51.080Z,46.19
2023-04-22T17:43:17.985Z,46.56
2023-04-22T17:45:44.753Z,46.85
2023-04-22T17:48:11.802Z,47.50
2023-04-22T17:50:38.613Z,47.41
2023-04-22T17:53:06.045Z,48.21
2023-04-22T17:55:35.346Z,48.78
2023-04-22T17:58:03.113Z,48.40
2023-04-22T18:00:30.997Z,48.72
2023-04-22T18:02:58.139Z,48.78
2023-04-22T18:05:25.181Z,49.76
2023-04-22T18:07:52.710Z,50.50
2023-04-22T18:10:19.603Z,51.05
2023-04-22T18:12:46.856Z,50.94
2023-04-22T18:15:13.625Z,51.90
2023-04-22T18:17:40.714Z,52.88
2023-04-22T18:20:17.312Z,52.53
2023-04-22T18:22:52.857Z,53.66
2023-04-22T18:25:19.949Z,54.12
2023-04-22T18:27:47.707Z,53.97
2023-04-22T18:30:14.927Z,55.30
2023-04-22T18:32:41.742Z,55.43
2023-04-22T18:35:08.766Z,55.66
2023-04-22T18:37:35.560Z,57.13
2023-04-22T18:40:02.992Z,57.15
2023-04-22T18:42:30.228Z,57.23
2023-04-22T18:44:57.086Z,58.09
2023-04-22T18:47:23.968Z,58.43
2023-04-22T18:49:51.091Z,55.81
2023-04-22T18:52:18.240Z,55.64
2023-04-22T18:54:45.498Z,54.99
2023-04-22T18:57:12.574Z,56.35
2023-04-22T18:59:39.869Z,56.58
2023-04-22T19:02:06.803Z,57.33
2023-04-22T19:04:33.734Z,58.87
2023-04-22T19:07:01.077Z,60.27
2023-04-22T19:09:27.956Z,60.39
2023-04-22T19:11:55.744Z,61.60
2023-04-22T19:14:22.582Z,61.53
2023-04-22T19:16:49.736Z,63.59
2023-04-22T19:19:16.919Z,64.12
2023-04-22T19:21:43.903Z,63.59
2023-04-22T19:24:10.914Z,62.90
2023-04-22T19:26:37.949Z,62.45
2023-04-22T19:29:04.788Z,62.19
2023-04-22T19:31:31.785Z,63.24
2023-04-22T19:33:58.633Z,64.30
2023-04-22T19:36:25.760Z,63.44
2023-04-22T19:38:52.565Z,62.12
2023-04-22T19:41:19.412Z,62.60
2023-04-22T19:43:46.245Z,62.26
2023-04-22T19:46:13.141Z,62.76
2023-04-22T19:48:40.290Z,63.15
2023-04-22T19:51:07.599Z,63.36
2023-04-22T19:53:35.293Z,64.41
2023-04-22T19:56:03.122Z,66.23
2023-04-22T19:58:30.785Z,67.40
2023-04-22T20:00:57.816Z,66.39
2023-04-22T20:03:25.088Z,67.69
2023-04-22T20:05:52.372Z,67.50
2023-04-22T20:08:19.927Z,65.75
2023-04-22T20:10:49.729Z,68.92
2023-04-22T20:13:17.473Z,68.13
2023-04-22T20:15:44.690Z,68.28
2023-04-22T20:18:12.209Z,68.17
2023-04-22T20:20:41.311Z,69.13
2023-04-22T20:23:12.980Z,74.25
2023-04-22T20:25:44.414Z,74.63
2023-04-22T20:28:11.494Z,73.88
2023-04-22T20:30:38.541Z,77.74
2023-04-22T20:33:05.518Z,77.69
2023-04-22T20:35:32.468Z,79.56
2023-04-22T20:38:00.267Z,76.18
2023-04-22T20:40:27.525Z,72.86
2023-04-22T20:42:57.274Z,72.92
2023-04-22T20:45:24.616Z,74.73
2023-04-22T20:47:51.592Z,69.04
2023-04-22T20:50:18.786Z,72.91
2023-04-22T20:52:45.443Z,75.19
2023-04-22T20:55:15.428Z,73.94
2023-04-22T20:57:42.394Z,77.14
2023-04-22T21:00:10.477Z,78.59
2023-04-22T21:02:38.035Z,76.15
2023-04-22T21:05:05.533Z,73.55
2023-04-22T21:07:33.912Z,74.86
2023-04-22T21:10:00.985Z,77.23
2023-04-22T21:12:27.972Z,77.41
2023-04-22T21:14:55.212Z,78.69
2023-04-22T21:17:25.670Z,79.58
2023-04-22T21:19:53.880Z,81.30
2023-04-22T21:22:22.332Z,82.34
2023-04-22T21:24:50.018Z,84.84
2023-04-22T21:27:17.802Z,83.40
2023-04-22T21:29:45.280Z,75.12
2023-04-22T21:32:12.465Z,79.37
2023-04-22T21:34:39.494Z,68.70
2023-04-22T21:37:07.353Z,80.12
2023-04-22T21:39:34.382Z,73.77
2023-04-22T21:42:02.624Z,73.53
2023-04-22T21:44:29.298Z,75.92
2023-04-22T21:46:56.240Z,75.52
2023-04-22T21:49:23.226Z,73.44
2023-04-22T21:51:50.030Z,74.77
2023-04-22T21:54:16.947Z,75.96
2023-04-22T21:56:43.712Z,73.05
2023-04-22T21:59:10.774Z,71.34
2023-04-22T22:01:37.450Z,76.37
2023-04-22T22:04:04.474Z,73.43
2023-04-22T22:06:31.593Z,73.17
2023-04-22T22:39:16.363Z,81.86
2023-04-22T22:41:44.066Z,82.23
2023-04-22T22:44:10.873Z,83.64
2023-04-22T22:46:37.535Z,81.60
2023-04-22T22:49:04.227Z,79.98
2023-04-22T22:51:32.768Z,80.90
2023-04-22T22:53:59.775Z,79.95
2023-04-22T22:56:26.501Z,81.02
2023-04-22T22:58:53.219Z,82.00
2023-04-22T23:01:19.947Z,80.28
2023-04-22T23:03:48.432Z,81.06
2023-04-22T23:06:15.553Z,79.70
2023-04-22T23:08:42.246Z,83.02
2023-04-22T23:11:08.966Z,82.50
2023-04-22T23:13:35.770Z,82.80
2023-04-22T23:16:02.503Z,85.88
2023-04-22T23:18:29.906Z,86.83
2023-04-22T23:21:00.021Z,89.00
2023-04-22T23:23:28.634Z,86.24
2023-04-22T23:25:56.253Z,87.88
2023-04-22T23:28:23.510Z,88.25
2023-04-22T23:30:51.137Z,87.74
2023-04-22T23:33:20.700Z,88.49
2023-04-22T23:35:47.591Z,86.14
2023-04-22T23:38:14.375Z,84.10
2023-04-22T23:40:41.427Z,84.28
2023-04-22T23:43:08.530Z,82.48
2023-04-22T23:45:35.714Z,84.53
2023-04-22T23:48:02.375Z,83.86
2023-04-22T23:50:30.283Z,86.07
2023-04-22T23:52:57.328Z,85.17
2023-04-22T23:55:24.283Z,85.79
2023-04-22T23:57:51.326Z,87.77
